Historyczne dane pomiarowe

Dodano dane terminowe – wersja testowa.

Dane z okresu 1951-2019

Wersja bazy: 1.34 [2019-03-16, lista zmian], aktualizacja planowana na 2019-04-15

Dane meteo z obszaru Polski uzyskane na podstawie danych udostępnionych przez Instytut Meteorologii i Gospodarki Wodnej – Państwowy Instytut Badawczy.

 

Wybierz Datę:    

       

TemperaturaWilgotnośćWiatrCiśnienieOpadyŚniegCzas trwania zjawisk
 Stacja t tx tn tng RH VA  wxwx mslp ppp RRR   cm mm wxwxwxwxwxwxwx
1994-08-14 14.5 19.8 12.5- 69.0- 4.7 7.3---- 0.2------------
1994-08-13 19.3 22.0 16.6- 71.3- 6.0 3.0---- 0.6------------
1994-08-12 19.6 21.2 16.3- 72.0- 5.0 2.7---- 0.1------------
1994-08-11 20.6 21.6 16.1- 71.5- 3.0 2.7---- 0.0------------
1994-08-10 20.0 21.9 16.3- 76.5- 3.3 2.7---- 0.5------------
1994-08-09 20.6 21.9 17.9- 71.8- 6.3 2.3---- 0.0------------
1994-08-08 20.6 23.0 16.5- 70.3- 3.3 2.7---- 0.0------------
1994-08-07 21.6 25.0 19.0- 68.5- 3.0 4.0---- 0.0------------
1994-08-06 25.1 29.9 22.4- 57.3- 3.7 5.0---- 0.0------------
1994-08-05 21.8 25.0 17.0- 76.8- 0.7 2.7---- 0.0------------
1994-08-04 22.0 24.5 19.2- 75.3- 1.7 4.7---- 0.0------------
1994-08-03 22.3 25.7 20.2- 81.8- 5.7 3.0---- 0.0------------
1994-08-02 24.1 25.7 21.7- 82.0- 2.0 3.0---- 0.0------------
1994-08-01 24.5 27.4 22.2- 67.3- 4.3 4.0---- 0.0------------
1994-07-31 25.6 28.4 23.2- 83.8- 3.7 3.0---- 3.6------------
1994-07-30 25.6 28.4 23.2- 70.8- 3.0 2.3---- 0.0------------
1994-07-29 26.5 30.2 20.2- 68.8- 2.7 1.0---- 0.0------------
1994-07-28 24.5 26.4 20.1- 74.8- 0.0 2.0---- 0.0------------
1994-07-27 24.0 26.7 21.2- 65.5- 1.3 2.3---- 0.0------------
1994-07-26 23.4 25.4 18.5- 74.5- 1.3 2.0---- 0.0------------
1994-07-25 22.9 24.6 18.2- 68.8- 1.7 2.7---- 0.0------------
1994-07-24 21.8 24.2 16.8- 67.5- 0.7 3.0---- 0.0------------
1994-07-23 21.0 23.0 16.3- 67.5- 2.7 2.0---- 0.0------------
1994-07-22 19.4 21.7 14.5- 76.8- 2.7 2.3---- 0.0------------
1994-07-21 19.5 24.2 15.4- 69.0- 2.7 3.7---- 0.0------------
1994-07-20 18.3 20.2 14.7- 70.8- 2.3 3.0---- 0.0------------
1994-07-19 17.8 19.6 13.9- 66.8- 3.7 3.3---- 0.0------------
1994-07-18 17.6 20.1 14.9- 69.0- 3.3 4.0---- 0.0------------
1994-07-17 20.2 23.6 17.6- 63.8- 5.7 4.3---- 0.0------------
1994-07-16 22.6 27.5 19.3- 67.5- 4.3 3.7---- 0.3------------
1994-07-15 24.7 26.9 21.9- 70.3- 6.3 4.0---- 0.0------------
1994-07-14 23.6 26.0 20.1- 73.3- 3.7 1.0---- 0.0------------
1994-07-13 22.7 25.6 18.8- 69.3- 3.3 2.0---- 0.0------------
1994-07-12 21.0 24.3 15.7- 73.0- 1.0 1.7---- 0.0------------
1994-07-11 19.9 24.1 17.0- 71.5- 1.0 3.3---- 0.0------------
1994-07-10 18.9 21.6 15.5- 80.8- 0.3 3.0---- 0.0------------
1994-07-09 17.1 19.1 14.5- 82.0- 3.3 2.7---- 0.0------------
1994-07-08 17.9 19.7 13.9- 78.5- 4.7 3.0---- 3.1------------
1994-07-07 15.6 17.4 11.1- 74.8- 1.3 2.7---- 0.0------------
1994-07-06 15.6 17.2 12.5- 81.8- 3.3 3.3---- 0.0------------
1994-07-05 15.6 17.5 12.5- 83.0- 4.7 4.0---- 0.0------------
1994-07-04 17.3 19.2 13.6- 75.3- 1.7 3.3---- 0.0------------
1994-07-03 16.6 19.0 12.2- 77.0- 5.0 1.7---- 0.0------------
1994-07-02 15.6 17.7 11.9- 76.3- 2.0 2.7---- 0.0------------
1994-07-01 16.0 19.4 13.9- 68.8- 2.7 4.7---- 0.0------------
1994-06-30 18.4 25.2 16.4- 70.0- 3.7 6.7---- 0.0------------
1994-06-29 18.4 21.6 15.3- 80.8- 2.7 3.3---- 2.1------------
1994-06-28 18.7 21.1 15.8- 76.3- 2.0 2.0---- 0.0------------
1994-06-27 20.4 24.1 16.8- 65.3- 5.0 5.0---- 0.0------------
1994-06-26 20.4 30.8 13.1- 63.3- 1.0 4.7---- 0.0------------
1994-06-25 14.0 16.5 10.6- 79.0- 2.3 3.7---- 0.0------------
1994-06-24 14.2 17.0 11.3- 60.3- 3.3 7.3---- 0.0------------
1994-06-23 13.8 17.0 10.7- 64.3- 3.7 11.0---- 0.8------------
1994-06-22 17.0 20.6 13.9- 75.5- 7.3 6.0---- 0.2------------
1994-06-21 13.7 18.8 10.7- 74.8- 5.3 4.3---- 0.2------------
1994-06-20 14.1 16.2 11.3- 64.8- 4.7 6.7---- 0.0------------
1994-06-19 13.2 14.5 11.5- 88.3- 8.0 5.3---- 1.2------------
1994-06-18 12.6 16.6 8.4- 69.3- 5.3 4.0---- 0.6------------
1994-06-17 10.5 12.9 7.7- 70.8- 4.7 3.3---- 2.6------------
1994-06-16 11.6 14.5 9.5- 68.8- 6.7 6.0---- 3.4------------
424.8 ms

 

Źródłem pochodzenia danych jest Instytut Meteorologii i Gospodarki Wodnej – Państwowy Instytut Badawczy. Dane Instytutu Meteorologii i Gospodarki Wodnej – Państwowego Instytutu Badawczego zostały przetworzone.

Dane źródłowe można odnaleźć na stronie https://dane.imgw.pl